Aeroporto :
LOGIN :

Iscrizione | Disclaimer

   EN    FR    IT 

 










Sommario :    VFR   VFR Marginale   IFR   IFR Intensivo   IFR Molto Intensivo
Visibilità : 
Base nubi : 
>= 8 km
>= 3000ft
5 / 8 km
1000 / 3000 ft
1500m / 5 km
500 / 1000 ft
800 / 1500m
200 / 500 ft
< 800m
< 200 ft
Simboli :   Temporali  Nebbia  Neve Forte  Precipitazioni Forti  Vento > 20 kt
SIGMETs :   Varie  Temporali  Ghiacco  Turbolenza  Onda orograficha  Ceneri Vulcaniche






- Altitudine del aeroporto : 1460 ft


LSMA - Alpnach

ULTIMO METAR :
  • 280450Z AUTO VRB02KT 9999NDV -RA FEW021 OVC060 11/10 Q1022 RMK

METARs OBSOLETI :
  • 280420Z AUTO 02003KT 320V050 9999NDV -RA SCT019 OVC055 11/10 Q1022 RMK
  • 280350Z AUTO VRB01KT 9999NDV -RA SCT016 BKN019 OVC051 11/10 Q1022 RMK
  • 280320Z AUTO 02005KT 340V060 7000NDV -RA SCT016 BKN028 OVC042 11/10 Q1022 RMK
  • 280250Z AUTO 06008KT 9999NDV -RA SCT021 BKN028 OVC038 11/10 Q1022 RERA RMK
  • 280220Z AUTO 08007KT 050V110 5000NDV -RA FEW012 BKN031 OVC036 11/09 Q1022 RERA RMK
  • 280150Z AUTO 07005KT 040V100 4000NDV RA BKN032 OVC037 11/10 Q1022 RMK
  • 280120Z AUTO 07003KT 9999NDV -RA BKN041 OVC055 11/11 Q1022 RMK
  • 280050Z AUTO VRB01KT 9999NDV -RA BKN049 OVC063 12/11 Q1022 RMK
  • 280020Z AUTO 00000KT 9000NDV -RA SCT040 BKN051 OVC059 12/11 Q1022 RMK

Previsioni scadute.



MetMap, La meteo Aeronautica in un colpo d'occhio ! - Copyright ORBIFLY Dicembre 2007 - Disclaimer

ORBIFLY MET'MAP TEAM :

Programmazione e sviluppo : Alexandra Zaïnal
Concezione : Baudouin d'Aumeries
Supporto tecnico e logistico : Manuel Goepfert
Aiuto : Marc-Olivier Méhu
Aiuto per la traduzione : Arnaldo La Scala




FONTI E CREDITI :

   NOAA